Time;durP1;ratioP1;P1;durP2;ratioP2;P2;SDS_P1;SDS_P2;PMS_P1;PMS_P2;Temp;Humidity;BMP_temperature;BMP_pressure;BME280_temperature;BME280_humidity;BME280_pressure;Samples;Min_cycle;Max_cycle;Signal;HPM_P1;HPM_P2
2022/04/17 04:00:54;;;;;;;9.15;6.75;;;1.10;99.90;;;;;;6244891;22;20097;-76
2022/04/17 04:03:20;;;;;;;9.50;6.95;;;1.00;99.90;;;;;;6252496;22;20044;-77
2022/04/17 04:05:46;;;;;;;11.45;7.68;;;1.10;99.90;;;;;;6252518;22;20005;-76
2022/04/17 04:08:12;;;;;;;10.82;7.18;;;1.00;99.90;;;;;;6225097;22;20009;-76
2022/04/17 04:10:37;;;;;;;9.85;7.07;;;1.00;99.90;;;;;;6252406;22;20310;-76
2022/04/17 04:13:04;;;;;;;10.85;6.47;;;0.90;99.90;;;;;;6252306;22;20499;-76
2022/04/17 04:15:29;;;;;;;10.13;7.45;;;0.90;99.90;;;;;;6253117;22;20005;-76
2022/04/17 04:17:56;;;;;;;10.18;7.35;;;0.90;99.90;;;;;;6225238;22;20045;-76
2022/04/17 04:20:22;;;;;;;11.00;7.65;;;0.90;99.90;;;;;;6225294;22;20344;-77
2022/04/17 04:22:47;;;;;;;10.80;7.60;;;0.90;99.90;;;;;;6252347;22;20016;-76
2022/04/17 04:25:13;;;;;;;9.02;6.75;;;1.00;99.90;;;;;;6225269;22;20502;-76
2022/04/17 04:30:22;;;;;;;11.57;7.32;;;0.90;99.90;;;;;;6252186;22;20008;-76
2022/04/17 04:32:56;;;;;;;11.77;7.40;;;1.00;99.90;;;;;;6225364;22;20099;-76
2022/04/17 04:35:21;;;;;;;10.10;7.13;;;0.90;99.90;;;;;;6252340;22;20000;-76
2022/04/17 04:37:48;;;;;;;11.27;7.40;;;1.10;99.90;;;;;;6252314;22;20425;-75
2022/04/17 04:40:15;;;;;;;10.90;7.00;;;1.00;99.90;;;;;;6252037;22;20039;-76
2022/04/17 04:42:41;;;;;;;14.30;6.60;;;0.90;99.90;;;;;;6252305;22;20028;-76
2022/04/17 04:47:54;;;;;;;12.63;7.22;;;0.80;99.90;;;;;;6252597;22;20023;-77
2022/04/17 04:50:20;;;;;;;13.52;7.53;;;0.90;99.90;;;;;;6227073;22;20009;-77
2022/04/17 04:52:45;;;;;;;15.05;7.38;;;1.10;99.90;;;;;;6254735;22;20326;-78
2022/04/17 04:55:11;;;;;;;9.48;7.18;;;1.20;99.90;;;;;;6254036;22;20055;-79
2022/04/17 04:57:36;;;;;;;12.90;7.90;;;1.30;99.90;;;;;;6265602;22;20012;-78
2022/04/17 05:00:06;;;;;;;10.82;7.05;;;1.40;99.90;;;;;;6237769;22;20008;-78
2022/04/17 05:02:34;;;;;;;10.35;7.57;;;1.40;99.90;;;;;;6263853;22;20012;-77
2022/04/17 05:05:00;;;;;;;9.75;6.40;;;1.50;99.90;;;;;;6255853;22;20059;-78
2022/04/17 05:07:25;;;;;;;9.60;6.63;;;1.40;99.90;;;;;;6253191;22;20017;-78
2022/04/17 05:09:51;;;;;;;9.45;6.72;;;1.30;99.90;;;;;;6228357;22;20433;-78
2022/04/17 05:12:16;;;;;;;12.05;6.57;;;1.40;99.90;;;;;;6226145;22;20465;-77
2022/04/17 05:14:44;;;;;;;8.70;6.90;;;1.40;99.90;;;;;;6253133;22;20004;-76
2022/04/17 05:17:09;;;;;;;12.90;6.65;;;1.40;99.90;;;;;;6253357;22;20503;-77
2022/04/17 05:19:35;;;;;;;10.40;6.93;;;1.30;99.90;;;;;;6226119;22;20013;-78
2022/04/17 05:22:02;;;;;;;10.65;7.13;;;1.30;99.90;;;;;;6254377;22;20139;-78
2022/04/17 05:24:28;;;;;;;9.52;6.90;;;1.30;99.90;;;;;;6254101;22;20043;-78
2022/04/17 05:26:54;;;;;;;9.90;6.55;;;1.30;99.90;;;;;;6254526;22;20019;-77
2022/04/17 05:29:19;;;;;;;9.25;6.82;;;1.40;99.90;;;;;;6227348;22;20023;-78
2022/04/17 05:31:46;;;;;;;9.57;7.00;;;1.40;99.90;;;;;;6253811;22;20043;-77
2022/04/17 05:34:12;;;;;;;8.52;6.30;;;1.50;99.90;;;;;;6227483;22;20043;-77
2022/04/17 05:36:37;;;;;;;9.95;7.45;;;1.50;99.90;;;;;;6226816;22;20059;-78
2022/04/17 05:39:05;;;;;;;9.68;6.43;;;1.50;99.90;;;;;;6255209;22;20359;-78
2022/04/17 05:41:32;;;;;;;9.23;6.63;;;1.70;99.90;;;;;;6227121;22;20034;-78
2022/04/17 05:43:58;;;;;;;9.73;6.75;;;1.70;99.90;;;;;;6254633;22;20015;-79
2022/04/17 05:46:26;;;;;;;13.88;7.60;;;1.70;99.90;;;;;;6254206;22;20062;-78
2022/04/17 05:48:52;;;;;;;12.00;7.47;;;1.70;99.90;;;;;;6253823;22;20009;-78
2022/04/17 05:51:18;;;;;;;9.82;7.13;;;1.70;99.90;;;;;;6253882;22;20009;-79
2022/04/17 05:53:44;;;;;;;10.13;7.15;;;1.80;99.90;;;;;;6253917;22;20082;-78
2022/04/17 05:56:09;;;;;;;10.60;7.07;;;1.90;99.90;;;;;;6254301;22;20000;-79
2022/04/17 05:58:35;;;;;;;8.98;7.38;;;1.90;99.90;;;;;;6255180;22;20478;-78
2022/04/17 06:01:02;;;;;;;9.02;6.85;;;2.00;99.90;;;;;;6253581;22;20012;-79
2022/04/17 06:03:31;;;;;;;8.52;6.65;;;2.10;99.90;;;;;;6254190;22;20004;-78
2022/04/17 06:05:59;;;;;;;8.63;6.80;;;2.10;99.90;;;;;;6254654;22;20009;-78
2022/04/17 06:08:25;;;;;;;8.88;6.95;;;2.20;99.90;;;;;;6253657;22;20009;-78
2022/04/17 06:10:51;;;;;;;8.48;6.45;;;2.30;99.90;;;;;;6253506;22;20409;-80
2022/04/17 06:13:17;;;;;;;8.98;6.20;;;2.40;99.90;;;;;;6253787;22;20415;-79
2022/04/17 06:15:42;;;;;;;10.00;7.10;;;2.50;99.90;;;;;;6253841;22;20004;-78
2022/04/17 06:18:08;;;;;;;9.77;6.35;;;2.60;99.90;;;;;;6254339;22;20015;-79
2022/04/17 06:20:33;;;;;;;8.05;6.75;;;2.70;99.90;;;;;;6227113;22;20016;-79
2022/04/17 06:22:59;;;;;;;9.45;6.78;;;2.80;99.90;;;;;;6227715;22;20005;-79
2022/04/17 06:25:24;;;;;;;9.50;6.90;;;2.90;99.90;;;;;;6254788;22;20009;-79
2022/04/17 06:27:50;;;;;;;9.15;6.63;;;3.20;99.90;;;;;;6226408;22;20017;-78
2022/04/17 06:30:17;;;;;;;9.27;6.57;;;3.40;99.90;;;;;;6254790;22;20001;-78
2022/04/17 06:32:43;;;;;;;9.05;5.93;;;3.50;99.90;;;;;;6254314;22;20005;-78
2022/04/17 06:35:11;;;;;;;7.70;6.45;;;3.70;99.90;;;;;;6256400;22;20001;-77
2022/04/17 06:37:50;;;;;;;6.90;5.68;;;3.80;99.90;;;;;;6226157;22;20009;-79
2022/04/17 06:40:29;;;;;;;6.35;5.15;;;3.90;99.90;;;;;;6253462;22;20044;-79
2022/04/17 06:43:01;;;;;;;7.88;5.78;;;4.10;99.90;;;;;;6254307;22;20009;-77
2022/04/17 06:45:28;;;;;;;8.30;5.65;;;4.20;99.90;;;;;;6253618;22;20736;-75
2022/04/17 06:47:54;;;;;;;7.25;5.47;;;4.40;99.90;;;;;;6252322;22;20420;-74
2022/04/17 06:50:22;;;;;;;7.47;5.80;;;4.50;99.90;;;;;;6252940;22;20135;-74
2022/04/17 06:52:48;;;;;;;6.93;5.55;;;4.60;99.90;;;;;;6253119;22;20009;-76
2022/04/17 06:55:13;;;;;;;5.43;4.70;;;4.70;99.90;;;;;;6253104;22;20004;-75
2022/04/17 06:57:47;;;;;;;5.88;5.05;;;4.80;99.90;;;;;;6253366;22;20016;-74
2022/04/17 07:00:18;;;;;;;9.45;4.60;;;4.90;99.90;;;;;;6252771;22;20523;-75
2022/04/17 07:02:51;;;;;;;8.32;4.50;;;5.00;99.90;;;;;;6265098;22;20095;-73
2022/04/17 07:05:20;;;;;;;6.95;4.43;;;5.30;99.90;;;;;;6226254;22;20005;-79
2022/04/17 07:07:45;;;;;;;6.45;4.10;;;5.60;99.90;;;;;;6254676;22;20008;-74
2022/04/17 07:10:12;;;;;;;7.05;4.28;;;5.80;99.90;;;;;;6253299;22;20012;-75
2022/04/17 07:12:42;;;;;;;5.05;4.00;;;6.10;99.90;;;;;;6255196;22;20027;-71
2022/04/17 07:15:11;;;;;;;5.80;4.13;;;6.20;99.90;;;;;;6254294;22;20000;-76
2022/04/17 07:17:39;;;;;;;4.22;3.78;;;6.30;99.90;;;;;;6226516;22;20017;-76
2022/04/17 07:20:06;;;;;;;4.68;3.90;;;6.50;99.90;;;;;;6253269;22;20011;-76
2022/04/17 07:22:33;;;;;;;5.00;3.50;;;6.60;99.90;;;;;;6225228;22;20004;-77
2022/04/17 07:25:01;;;;;;;5.25;3.40;;;6.80;99.90;;;;;;6253520;22;20001;-76
2022/04/17 07:27:28;;;;;;;5.30;3.30;;;7.00;99.90;;;;;;6253138;22;20009;-77
2022/04/17 07:29:54;;;;;;;8.35;3.88;;;7.20;99.90;;;;;;6253430;22;20568;-77
2022/04/17 07:32:20;;;;;;;5.70;3.58;;;7.30;99.90;;;;;;6252695;22;20089;-77
2022/04/17 07:34:47;;;;;;;6.72;3.97;;;7.50;99.90;;;;;;6253182;22;20004;-76
2022/04/17 07:37:12;;;;;;;5.60;3.40;;;7.70;99.90;;;;;;6226441;22;20009;-76
2022/04/17 07:39:38;;;;;;;4.28;3.20;;;7.90;99.00;;;;;;6252362;22;20436;-76
2022/04/17 07:42:03;;;;;;;3.97;2.90;;;8.10;99.30;;;;;;6252320;22;20018;-76
2022/04/17 07:44:29;;;;;;;5.03;3.08;;;8.30;97.90;;;;;;6254039;22;20012;-76
2022/04/17 07:46:55;;;;;;;6.45;3.35;;;8.50;96.50;;;;;;6253752;22;20008;-79
2022/04/17 07:49:21;;;;;;;5.18;3.58;;;8.70;96.90;;;;;;6253246;22;20013;-77
2022/04/17 07:51:46;;;;;;;3.67;3.00;;;8.80;95.80;;;;;;6253146;22;20001;-75
2022/04/17 07:54:12;;;;;;;4.75;3.42;;;9.20;94.80;;;;;;6252633;22;20005;-74
2022/04/17 07:56:37;;;;;;;5.22;3.45;;;9.30;95.00;;;;;;6253195;22;20005;-76
2022/04/17 07:59:04;;;;;;;4.38;2.80;;;9.60;94.50;;;;;;6252751;22;20021;-76
2022/04/17 08:01:33;;;;;;;4.00;3.10;;;9.70;92.90;;;;;;6252613;22;20032;-75
2022/04/17 08:03:58;;;;;;;5.35;2.80;;;9.90;92.90;;;;;;6254583;22;20008;-75
2022/04/17 08:06:24;;;;;;;4.20;2.70;;;10.00;91.70;;;;;;6226900;22;20322;-75
2022/04/17 08:08:52;;;;;;;3.15;2.50;;;10.10;91.50;;;;;;6226410;22;20021;-75
2022/04/17 08:11:18;;;;;;;4.32;2.50;;;10.20;91.20;;;;;;6226717;22;20335;-75
2022/04/17 08:13:46;;;;;;;3.33;2.55;;;10.20;90.00;;;;;;6227670;22;20004;-75
2022/04/17 08:16:12;;;;;;;3.75;2.28;;;10.40;91.50;;;;;;6226955;22;20011;-75
2022/04/17 08:18:38;;;;;;;3.03;2.20;;;10.70;88.90;;;;;;6254723;22;20008;-76
2022/04/17 08:21:04;;;;;;;3.00;2.17;;;11.00;84.50;;;;;;6252400;22;20019;-75
2022/04/17 08:23:30;;;;;;;4.18;2.10;;;11.10;83.80;;;;;;6225700;22;20012;-76
2022/04/17 08:25:56;;;;;;;3.95;2.10;;;11.20;84.20;;;;;;6252710;22;20000;-77
2022/04/17 08:28:22;;;;;;;3.53;2.03;;;11.40;85.50;;;;;;6252170;22;20071;-77
2022/04/17 08:30:49;;;;;;;5.65;2.95;;;11.40;81.70;;;;;;6252411;22;20011;-77
2022/04/17 08:33:14;;;;;;;3.22;2.08;;;11.60;80.80;;;;;;6255327;22;20009;-78
2022/04/17 08:35:40;;;;;;;2.83;1.90;;;11.70;81.30;;;;;;6254681;22;20004;-78
2022/04/17 08:38:05;;;;;;;4.45;2.17;;;11.80;79.30;;;;;;6253480;22;20020;-77
2022/04/17 08:40:32;;;;;;;3.05;2.10;;;11.80;78.70;;;;;;6252127;22;20001;-77
2022/04/17 08:42:58;;;;;;;2.83;1.95;;;11.90;77.10;;;;;;6253705;22;20013;-75
2022/04/17 08:45:25;;;;;;;3.30;2.10;;;11.90;77.80;;;;;;6255919;22;20011;-78
2022/04/17 08:47:51;;;;;;;6.00;2.33;;;12.00;76.70;;;;;;6228086;22;20027;-77
2022/04/17 08:50:18;;;;;;;2.97;2.20;;;12.00;77.80;;;;;;6255401;22;20009;-76
2022/04/17 08:52:49;;;;;;;2.80;2.00;;;12.20;77.10;;;;;;6255388;22;20029;-76
2022/04/17 08:55:15;;;;;;;2.95;1.88;;;12.40;75.20;;;;;;6228287;22;20004;-77
2022/04/17 08:57:41;;;;;;;4.78;2.20;;;12.50;75.00;;;;;;6255462;22;20158;-76
2022/04/17 09:00:10;;;;;;;3.03;1.80;;;12.60;76.70;;;;;;6255128;22;20013;-76
2022/04/17 09:02:36;;;;;;;2.88;2.00;;;12.70;73.30;;;;;;6255116;22;20012;-77
2022/04/17 09:05:06;;;;;;;2.63;2.00;;;12.80;73.60;;;;;;6255540;22;20011;-77
2022/04/17 09:07:47;;;;;;;5.38;2.20;;;12.80;70.80;;;;;;6255127;22;20017;-77
2022/04/17 09:10:24;;;;;;;3.13;2.00;;;12.80;71.40;;;;;;6255235;22;20024;-76
2022/04/17 09:12:53;;;;;;;5.88;1.90;;;13.10;70.70;;;;;;6255435;22;20012;-77
2022/04/17 09:15:22;;;;;;;2.38;1.77;;;12.90;68.90;;;;;;6255348;22;20009;-76
2022/04/17 09:17:48;;;;;;;3.35;1.90;;;13.00;70.80;;;;;;6255356;22;20009;-77
2022/04/17 09:20:22;;;;;;;2.58;2.25;;;13.10;72.40;;;;;;6254875;22;20285;-77
2022/04/17 09:22:56;;;;;;;3.47;2.20;;;13.20;70.30;;;;;;6227855;22;20008;-76
2022/04/17 09:25:23;;;;;;;3.28;1.63;;;13.20;69.30;;;;;;6255300;22;20079;-77
2022/04/17 09:27:56;;;;;;;2.28;1.58;;;13.30;70.10;;;;;;6227736;22;20079;-76
2022/04/17 09:30:34;;;;;;;3.65;2.03;;;13.40;71.40;;;;;;6257424;22;20001;-77
2022/04/17 09:33:10;;;;;;;2.95;1.88;;;13.70;69.20;;;;;;6257963;22;20009;-77
2022/04/17 09:35:37;;;;;;;5.20;2.03;;;13.70;67.20;;;;;;6255394;22;20050;-77
2022/04/17 09:38:05;;;;;;;3.53;1.92;;;13.80;67.70;;;;;;6257201;22;20013;-76
2022/04/17 09:40:31;;;;;;;5.15;2.20;;;13.80;68.30;;;;;;6230814;22;20433;-76
2022/04/17 09:43:16;;;;;;;4.40;1.67;;;13.90;66.70;;;;;;6230838;22;20027;-76
2022/04/17 09:46:00;;;;;;;2.55;1.50;;;14.10;65.50;;;;;;6257046;22;20009;-77
2022/04/17 09:48:35;;;;;;;3.97;1.85;;;14.20;65.20;;;;;;6230620;22;20043;-76
2022/04/17 09:51:30;;;;;;;3.05;1.98;;;14.30;63.60;;;;;;6257377;22;20709;-76
2022/04/17 09:54:01;;;;;;;4.13;1.73;;;14.00;65.80;;;;;;6256874;22;20093;-76
2022/04/17 09:56:32;;;;;;;4.63;1.70;;;14.00;65.30;;;;;;6228157;22;20031;-76
2022/04/17 09:58:59;;;;;;;2.08;1.60;;;14.20;65.70;;;;;;6228227;22;20048;-76
2022/04/17 10:01:27;;;;;;;3.92;1.67;;;14.30;65.60;;;;;;6228243;22;20052;-77
2022/04/17 10:03:57;;;;;;;2.03;1.63;;;14.50;64.20;;;;;;6257011;22;20043;-76
2022/04/17 10:06:23;;;;;;;4.13;1.92;;;14.50;62.40;;;;;;6228685;22;20005;-76
2022/04/17 10:08:50;;;;;;;3.20;1.83;;;14.70;63.80;;;;;;6228447;22;20017;-76
2022/04/17 10:11:18;;;;;;;6.15;2.13;;;14.70;64.60;;;;;;6227829;22;20067;-76
2022/04/17 10:13:45;;;;;;;3.55;1.83;;;14.80;63.90;;;;;;6203829;22;20017;-78
2022/04/17 10:16:12;;;;;;;2.70;1.60;;;14.90;61.70;;;;;;6252988;22;20011;-78
2022/04/17 10:18:40;;;;;;;2.20;1.40;;;14.90;58.70;;;;;;6252694;22;20020;-77
2022/04/17 10:21:07;;;;;;;2.47;1.60;;;14.70;59.70;;;;;;6252463;22;20131;-78
2022/04/17 10:23:36;;;;;;;3.78;1.95;;;14.90;62.20;;;;;;6252978;22;20345;-78
2022/04/17 10:26:04;;;;;;;3.05;1.80;;;15.00;62.10;;;;;;6253037;22;20001;-78
2022/04/17 10:28:34;;;;;;;2.67;1.85;;;15.10;63.00;;;;;;6252615;22;20020;-76
2022/04/17 10:31:09;;;;;;;9.43;4.50;;;15.50;63.30;;;;;;6252804;22;20436;-76
2022/04/17 10:33:46;;;;;;;3.05;2.10;;;15.60;60.40;;;;;;6252984;22;20055;-76
2022/04/17 10:36:34;;;;;;;3.10;1.60;;;15.70;60.20;;;;;;6225685;22;20004;-76
2022/04/17 10:39:27;;;;;;;4.75;2.90;;;15.60;60.50;;;;;;6255618;22;20020;-78
2022/04/17 10:41:53;;;;;;;3.78;2.00;;;15.60;61.40;;;;;;6252677;22;20044;-78
2022/04/17 10:44:19;;;;;;;3.35;1.90;;;15.50;60.20;;;;;;6254307;22;20011;-77
2022/04/17 10:46:50;;;;;;;2.65;1.75;;;15.70;59.90;;;;;;6254096;22;20032;-77
2022/04/17 10:49:21;;;;;;;4.70;1.88;;;15.80;59.70;;;;;;6226194;22;20051;-76
2022/04/17 10:51:55;;;;;;;3.67;1.65;;;15.90;60.50;;;;;;6252960;22;20000;-77
2022/04/17 10:54:21;;;;;;;2.72;1.80;;;15.90;59.70;;;;;;6253045;22;20008;-78
2022/04/17 10:56:55;;;;;;;2.88;1.60;;;16.10;58.10;;;;;;6253207;22;20123;-77
2022/04/17 10:59:32;;;;;;;2.63;1.40;;;16.20;58.90;;;;;;6252878;22;20009;-78
2022/04/17 11:02:04;;;;;;;2.97;2.00;;;16.20;59.40;;;;;;6252470;22;20008;-78
2022/04/17 11:04:39;;;;;;;2.80;1.70;;;16.10;58.60;;;;;;6225921;22;20004;-77
2022/04/17 11:07:05;;;;;;;3.10;1.45;;;16.00;62.10;;;;;;6254382;22;20001;-79
2022/04/17 11:09:41;;;;;;;3.13;1.60;;;16.10;59.40;;;;;;6226727;22;20048;-78
2022/04/17 11:12:10;;;;;;;2.50;1.80;;;16.00;59.30;;;;;;6226210;22;20005;-78
2022/04/17 11:14:39;;;;;;;2.75;1.88;;;16.20;58.70;;;;;;6252964;22;20005;-77
2022/04/17 11:17:09;;;;;;;2.22;1.60;;;16.30;60.70;;;;;;6225714;22;20004;-78
2022/04/17 11:19:37;;;;;;;2.53;1.33;;;16.70;55.30;;;;;;6252840;22;20048;-77
2022/04/17 11:22:04;;;;;;;2.15;1.70;;;16.60;56.60;;;;;;6253160;22;20001;-78
2022/04/17 11:24:55;;;;;;;3.05;1.77;;;16.50;56.90;;;;;;6253388;22;20009;-78
2022/04/17 11:27:47;;;;;;;3.15;1.58;;;16.50;57.40;;;;;;6252552;22;20518;-78
2022/04/17 11:30:15;;;;;;;3.35;1.45;;;16.70;55.90;;;;;;6253139;22;20052;-77
2022/04/17 11:32:41;;;;;;;3.70;1.58;;;16.70;55.40;;;;;;6252904;22;20053;-77
2022/04/17 11:35:11;;;;;;;6.05;2.00;;;16.70;55.80;;;;;;6225766;22;20088;-78
2022/04/17 11:37:37;;;;;;;2.28;1.58;;;16.50;57.90;;;;;;6252871;22;20054;-77
2022/04/17 11:40:14;;;;;;;2.22;1.50;;;16.80;55.10;;;;;;6253881;22;20013;-77
2022/04/17 11:42:51;;;;;;;2.67;1.30;;;17.30;54.00;;;;;;6254930;22;20005;-78
2022/04/17 11:45:27;;;;;;;2.58;1.30;;;17.80;53.90;;;;;;6255620;22;20008;-78
2022/04/17 11:47:55;;;;;;;1.75;1.40;;;17.80;52.90;;;;;;6254330;22;20019;-78
2022/04/17 11:50:23;;;;;;;1.92;1.35;;;17.30;52.40;;;;;;6255517;22;20087;-78
2022/04/17 11:52:50;;;;;;;2.75;1.88;;;17.50;53.80;;;;;;6254785;22;20009;-77
2022/04/17 11:55:16;;;;;;;3.95;1.48;;;17.20;56.40;;;;;;6253648;22;20007;-77
2022/04/17 11:57:42;;;;;;;6.10;2.10;;;17.10;54.30;;;;;;6253695;22;20042;-78
2022/04/17 12:00:12;;;;;;;3.03;1.50;;;17.30;57.50;;;;;;6254049;22;20004;-77
2022/04/17 12:02:37;;;;;;;3.08;1.60;;;17.60;55.60;;;;;;6253047;22;20012;-78
2022/04/17 12:05:09;;;;;;;3.38;1.50;;;17.60;54.40;;;;;;6254099;22;19997;-78
2022/04/17 12:07:35;;;;;;;2.65;1.50;;;17.60;55.60;;;;;;6254326;22;20348;-77
2022/04/17 12:10:14;;;;;;;2.47;1.70;;;18.00;56.10;;;;;;6226007;22;20008;-78
2022/04/17 12:12:45;;;;;;;3.08;1.42;;;17.70;53.10;;;;;;6253592;22;20009;-77
2022/04/17 12:15:12;;;;;;;2.75;1.70;;;17.50;52.00;;;;;;6253884;22;20461;-78
2022/04/17 12:17:39;;;;;;;2.20;1.58;;;17.50;52.40;;;;;;6252876;22;20031;-77
2022/04/17 12:20:14;;;;;;;4.20;1.80;;;17.30;52.70;;;;;;6226201;22;20008;-78
2022/04/17 12:22:41;;;;;;;3.75;1.75;;;17.70;53.10;;;;;;6252531;22;20020;-77
2022/04/17 12:25:19;;;;;;;20.85;14.15;;;17.40;51.60;;;;;;6253352;22;20055;-78
2022/04/17 12:27:53;;;;;;;13.48;8.40;;;17.40;52.80;;;;;;6225032;22;20070;-78
2022/04/17 12:30:27;;;;;;;3.42;1.77;;;17.80;53.80;;;;;;6252970;22;20004;-78
2022/04/17 12:32:59;;;;;;;11.13;8.38;;;18.00;55.10;;;;;;6252671;22;20008;-79
2022/04/17 12:35:29;;;;;;;5.97;3.60;;;18.10;54.90;;;;;;6252815;22;20011;-77
2022/04/17 12:38:10;;;;;;;3.30;2.28;;;18.00;52.10;;;;;;6252713;22;20009;-78
2022/04/17 12:40:43;;;;;;;3.42;2.38;;;18.00;53.10;;;;;;6252366;22;20028;-76
2022/04/17 12:43:19;;;;;;;2.03;1.70;;;18.10;53.30;;;;;;6252245;22;20008;-78
2022/04/17 12:46:06;;;;;;;2.42;1.70;;;18.30;50.10;;;;;;6252719;22;20033;-78
2022/04/17 12:48:35;;;;;;;2.88;1.75;;;18.20;50.80;;;;;;6251755;22;20355;-78
2022/04/17 12:51:11;;;;;;;3.10;2.17;;;18.30;51.10;;;;;;6252205;22;20028;-79
2022/04/17 12:53:39;;;;;;;3.83;2.30;;;18.20;54.40;;;;;;6252141;22;20016;-78
2022/04/17 12:56:07;;;;;;;9.45;5.82;;;18.60;51.60;;;;;;6252018;22;20008;-78
2022/04/17 12:58:50;;;;;;;2.38;1.70;;;18.50;52.80;;;;;;6251844;22;20541;-78
2022/04/17 13:01:21;;;;;;;6.07;2.85;;;18.80;50.30;;;;;;6251917;22;20004;-77
2022/04/17 13:03:47;;;;;;;4.88;2.90;;;18.80;51.70;;;;;;6251827;22;20004;-77
2022/04/17 13:06:21;;;;;;;3.65;2.20;;;19.00;51.90;;;;;;6251964;22;20013;-78
2022/04/17 13:09:06;;;;;;;2.83;1.70;;;18.80;51.40;;;;;;6252263;22;20009;-77
2022/04/17 13:11:39;;;;;;;4.75;3.15;;;19.00;49.10;;;;;;6251989;22;20011;-77
2022/04/17 13:14:05;;;;;;;2.55;1.90;;;19.10;52.70;;;;;;6251810;22;20023;-77
2022/04/17 13:16:31;;;;;;;3.13;1.50;;;18.80;50.50;;;;;;6251872;22;20001;-77
2022/04/17 13:18:57;;;;;;;3.47;2.42;;;18.90;49.70;;;;;;6251586;22;20019;-78
2022/04/17 13:21:23;;;;;;;3.15;1.80;;;18.90;49.60;;;;;;6251826;22;20406;-77
2022/04/17 13:23:49;;;;;;;3.45;1.80;;;18.70;48.90;;;;;;6251988;22;20008;-78
2022/04/17 13:26:15;;;;;;;2.30;1.73;;;19.00;53.10;;;;;;6252058;22;20000;-78
2022/04/17 13:28:41;;;;;;;3.28;1.48;;;19.10;51.50;;;;;;6251700;22;20375;-78
2022/04/17 13:31:07;;;;;;;2.53;1.42;;;19.20;50.60;;;;;;6252874;22;20079;-78
2022/04/17 13:33:33;;;;;;;3.55;1.60;;;19.20;49.50;;;;;;6253422;22;20005;-78
2022/04/17 13:35:58;;;;;;;2.22;1.70;;;19.10;48.70;;;;;;6226372;22;20080;-76
2022/04/17 13:38:24;;;;;;;2.30;1.55;;;19.00;51.70;;;;;;6225933;22;20017;-77
2022/04/17 13:40:50;;;;;;;2.75;1.75;;;18.80;48.20;;;;;;6252556;22;20433;-77
2022/04/17 13:43:16;;;;;;;3.05;1.80;;;19.00;51.00;;;;;;6225880;22;20012;-77
2022/04/17 13:45:41;;;;;;;2.28;1.52;;;19.10;50.20;;;;;;6253084;22;20009;-77
2022/04/17 13:48:07;;;;;;;3.65;1.83;;;19.60;48.60;;;;;;6252679;22;20437;-77
2022/04/17 13:50:36;;;;;;;2.75;1.52;;;20.20;48.50;;;;;;6252799;22;20005;-77
2022/04/17 13:53:03;;;;;;;2.80;1.40;;;20.90;47.30;;;;;;6253083;22;20004;-77
2022/04/17 13:55:28;;;;;;;1.52;1.20;;;21.00;46.30;;;;;;6253111;22;20036;-77
2022/04/17 13:57:54;;;;;;;2.05;1.55;;;21.60;46.50;;;;;;6252878;22;20472;-77
2022/04/17 14:00:20;;;;;;;4.68;1.65;;;22.10;43.30;;;;;;6252975;22;20388;-77
2022/04/17 14:02:45;;;;;;;2.70;1.50;;;21.80;43.70;;;;;;6252923;22;20032;-78
2022/04/17 14:05:11;;;;;;;2.72;1.75;;;21.70;44.50;;;;;;6225892;22;20009;-77
2022/04/17 14:07:37;;;;;;;2.08;1.63;;;22.50;43.10;;;;;;6252847;22;20008;-78
2022/04/17 14:10:04;;;;;;;2.15;1.55;;;21.70;44.90;;;;;;6254206;22;20063;-78
2022/04/17 14:12:29;;;;;;;2.03;1.40;;;22.30;42.60;;;;;;6255462;22;20417;-78
2022/04/17 14:14:56;;;;;;;1.98;1.52;;;22.80;41.10;;;;;;6254376;22;20028;-77
2022/04/17 14:17:22;;;;;;;2.38;1.50;;;22.80;42.40;;;;;;6252899;22;20008;-77
2022/04/17 14:19:48;;;;;;;2.17;1.40;;;22.90;44.90;;;;;;6252683;22;20009;-77
2022/04/17 14:22:13;;;;;;;2.03;1.50;;;23.10;42.20;;;;;;6252525;22;20440;-78
2022/04/17 14:24:40;;;;;;;2.25;1.58;;;23.10;40.90;;;;;;6252714;22;20394;-77
2022/04/17 14:27:06;;;;;;;1.60;1.33;;;23.50;39.90;;;;;;6252898;22;20092;-77
2022/04/17 14:29:31;;;;;;;3.28;1.38;;;24.80;39.70;;;;;;6252514;22;20091;-77
2022/04/17 14:31:57;;;;;;;1.92;1.60;;;24.70;39.30;;;;;;6252845;22;20075;-79
2022/04/17 14:34:22;;;;;;;2.88;1.70;;;24.70;39.50;;;;;;6252893;22;20336;-78
2022/04/17 14:36:48;;;;;;;3.90;1.70;;;25.10;36.80;;;;;;6252873;22;20067;-78
2022/04/17 14:39:14;;;;;;;2.13;1.70;;;25.20;39.20;;;;;;6252707;22;20037;-78
2022/04/17 14:41:40;;;;;;;2.15;1.33;;;25.00;36.90;;;;;;6252544;22;20075;-78
2022/04/17 14:44:05;;;;;;;2.25;1.40;;;25.00;37.70;;;;;;6252880;22;20001;-78
2022/04/17 14:46:31;;;;;;;2.00;1.38;;;25.40;36.60;;;;;;6253057;22;20011;-78
2022/04/17 14:48:56;;;;;;;2.20;1.80;;;24.90;38.40;;;;;;6252418;22;20016;-77
2022/04/17 14:51:22;;;;;;;3.15;1.60;;;24.80;37.20;;;;;;6252400;22;20019;-77
2022/04/17 14:53:49;;;;;;;2.95;1.88;;;25.70;38.30;;;;;;6252810;22;20015;-77
2022/04/17 14:56:18;;;;;;;2.17;1.60;;;24.20;39.50;;;;;;6253008;22;20076;-77
2022/04/17 14:58:43;;;;;;;2.72;1.88;;;25.20;39.80;;;;;;6252302;22;20345;-77
2022/04/17 15:01:10;;;;;;;2.60;1.50;;;25.20;38.10;;;;;;6252506;22;20008;-77
2022/04/17 15:03:36;;;;;;;2.80;1.65;;;26.00;36.60;;;;;;6252611;22;20475;-77
2022/04/17 15:06:02;;;;;;;4.63;1.77;;;27.50;35.30;;;;;;6252739;22;20072;-77
2022/04/17 15:08:28;;;;;;;1.83;1.48;;;27.10;37.10;;;;;;6252319;22;20087;-78
2022/04/17 15:10:54;;;;;;;2.55;1.67;;;26.30;34.20;;;;;;6252494;22;20001;-78
2022/04/17 15:13:21;;;;;;;2.95;1.98;;;26.70;35.40;;;;;;6252677;22;20005;-78
2022/04/17 15:15:47;;;;;;;4.78;1.90;;;25.70;35.10;;;;;;6252658;22;20084;-78
2022/04/17 15:18:13;;;;;;;2.20;2.00;;;26.40;36.30;;;;;;6252286;22;20071;-77
2022/04/17 15:20:38;;;;;;;1.73;1.60;;;26.50;35.20;;;;;;6254499;22;20520;-77
2022/04/17 15:23:04;;;;;;;2.40;1.98;;;26.10;36.00;;;;;;6255381;22;20012;-77
2022/04/17 15:25:30;;;;;;;3.47;1.90;;;27.80;34.20;;;;;;6256750;22;20005;-78
2022/04/17 15:27:55;;;;;;;2.72;1.92;;;29.40;32.70;;;;;;6255980;22;20131;-77
2022/04/17 15:30:25;;;;;;;2.75;2.00;;;27.90;32.60;;;;;;6254576;22;20004;-76
2022/04/17 15:32:50;;;;;;;2.30;1.85;;;26.70;37.00;;;;;;6254353;22;20008;-77
2022/04/17 15:35:16;;;;;;;2.33;2.00;;;26.60;36.10;;;;;;6254284;22;20005;-77
2022/04/17 15:37:41;;;;;;;3.50;2.10;;;27.70;35.20;;;;;;6253923;22;20012;-77
2022/04/17 15:40:08;;;;;;;3.10;2.30;;;28.00;32.00;;;;;;6253910;22;20436;-77
2022/04/17 15:42:37;;;;;;;2.20;2.00;;;29.00;33.10;;;;;;6226612;22;20013;-77
2022/04/17 15:47:57;;;;;;;2.58;1.70;;;29.10;34.10;;;;;;6253468;22;20012;-80
2022/04/17 15:50:23;;;;;;;3.13;1.65;;;27.50;31.70;;;;;;6253522;22;20000;-77
2022/04/17 15:52:50;;;;;;;2.38;1.80;;;29.00;34.60;;;;;;6253424;22;20036;-76
2022/04/17 15:55:16;;;;;;;2.00;1.70;;;28.40;31.80;;;;;;6253877;22;20005;-76
2022/04/17 15:57:41;;;;;;;3.28;1.83;;;28.00;32.80;;;;;;6253646;22;20151;-77
2022/04/17 16:00:08;;;;;;;2.08;1.73;;;29.50;31.40;;;;;;6253939;22;20004;-76
2022/04/17 16:02:34;;;;;;;2.25;1.88;;;28.80;32.00;;;;;;6234957;22;20529;-76
2022/04/17 16:05:02;;;;;;;2.75;2.13;;;27.80;33.40;;;;;;6253785;22;20036;-77
2022/04/17 16:07:28;;;;;;;2.95;1.90;;;29.20;32.30;;;;;;6251497;22;20911;-76
2022/04/17 16:09:54;;;;;;;1.98;1.65;;;28.40;31.10;;;;;;6253012;22;20831;-77
2022/04/17 16:12:19;;;;;;;2.45;1.60;;;27.70;31.30;;;;;;6252973;22;20004;-76
2022/04/17 16:14:45;;;;;;;3.05;1.48;;;26.40;31.90;;;;;;6253810;22;20471;-77
2022/04/17 16:17:11;;;;;;;2.00;1.60;;;25.80;35.70;;;;;;6251674;22;20012;-77
2022/04/17 16:19:37;;;;;;;3.25;1.67;;;25.80;35.40;;;;;;6252996;22;20564;-77
2022/04/17 16:22:03;;;;;;;2.05;1.63;;;24.00;35.70;;;;;;6252451;22;20001;-77
2022/04/17 16:24:29;;;;;;;2.33;1.70;;;23.20;38.10;;;;;;6252484;22;20008;-77
2022/04/17 16:26:54;;;;;;;2.50;1.45;;;23.00;37.30;;;;;;6252487;22;20012;-77
2022/04/17 16:29:20;;;;;;;1.92;1.60;;;22.90;37.80;;;;;;6250258;22;20005;-77
2022/04/17 16:31:46;;;;;;;3.10;1.70;;;22.50;38.30;;;;;;6252111;22;20004;-77
2022/04/17 16:34:11;;;;;;;3.53;1.83;;;22.80;38.10;;;;;;6253651;22;20451;-77
2022/04/17 16:36:38;;;;;;;2.22;1.70;;;22.10;39.30;;;;;;6253401;22;20433;-77
2022/04/17 16:39:04;;;;;;;2.05;1.52;;;21.40;40.80;;;;;;6253060;22;20075;-77
2022/04/17 16:41:29;;;;;;;2.45;1.80;;;20.60;41.00;;;;;;6253290;22;20008;-77
2022/04/17 16:43:56;;;;;;;2.75;1.65;;;20.60;42.60;;;;;;6253397;22;20036;-77
2022/04/17 16:46:21;;;;;;;2.08;1.75;;;20.90;40.50;;;;;;6253109;22;20005;-77
2022/04/17 16:48:47;;;;;;;3.28;1.48;;;21.90;39.70;;;;;;6252240;22;20004;-77
2022/04/17 16:51:13;;;;;;;2.67;1.50;;;21.70;38.80;;;;;;6252077;22;20020;-77
2022/04/17 16:53:39;;;;;;;2.90;1.58;;;21.90;38.60;;;;;;6250625;22;20059;-76
2022/04/17 16:56:04;;;;;;;2.47;2.15;;;21.50;39.70;;;;;;6252061;22;20008;-77
2022/04/17 17:01:14;;;;;;;3.50;1.77;;;21.80;39.90;;;;;;6253448;22;20015;-78
2022/04/17 17:03:50;;;;;;;4.07;1.67;;;20.20;39.90;;;;;;6252600;22;20012;-75